sensor_id;sensor_type;location;lat;lon;timestamp;P1;durP1;ratioP1;P2;durP2;ratioP2
22764;SDS011;11549;50.852;3.816;2022-08-19T00:01:53;46.95;;;36.95;;
22764;SDS011;11549;50.852;3.816;2022-08-19T00:04:26;44.83;;;34.67;;
22764;SDS011;11549;50.852;3.816;2022-08-19T00:06:57;48.00;;;35.85;;
22764;SDS011;11549;50.852;3.816;2022-08-19T00:09:26;38.15;;;32.13;;
22764;SDS011;11549;50.852;3.816;2022-08-19T00:11:56;36.10;;;28.80;;
22764;SDS011;11549;50.852;3.816;2022-08-19T00:14:25;43.05;;;34.05;;
22764;SDS011;11549;50.852;3.816;2022-08-19T00:16:56;41.80;;;33.53;;
22764;SDS011;11549;50.852;3.816;2022-08-19T00:19:26;42.85;;;34.33;;
22764;SDS011;11549;50.852;3.816;2022-08-19T00:21:55;42.42;;;32.85;;
22764;SDS011;11549;50.852;3.816;2022-08-19T00:24:23;38.28;;;31.42;;
22764;SDS011;11549;50.852;3.816;2022-08-19T00:26:52;38.15;;;31.45;;
22764;SDS011;11549;50.852;3.816;2022-08-19T00:29:21;36.05;;;30.02;;
22764;SDS011;11549;50.852;3.816;2022-08-19T00:31:51;32.67;;;27.88;;
22764;SDS011;11549;50.852;3.816;2022-08-19T00:34:21;37.42;;;27.77;;
22764;SDS011;11549;50.852;3.816;2022-08-19T00:36:51;27.75;;;22.55;;
22764;SDS011;11549;50.852;3.816;2022-08-19T00:39:19;29.50;;;23.17;;
22764;SDS011;11549;50.852;3.816;2022-08-19T00:41:48;28.73;;;22.77;;
22764;SDS011;11549;50.852;3.816;2022-08-19T00:44:18;34.53;;;25.10;;
22764;SDS011;11549;50.852;3.816;2022-08-19T00:46:53;27.95;;;21.20;;
22764;SDS011;11549;50.852;3.816;2022-08-19T00:49:24;26.88;;;21.33;;
22764;SDS011;11549;50.852;3.816;2022-08-19T00:51:59;28.17;;;22.48;;
22764;SDS011;11549;50.852;3.816;2022-08-19T00:54:30;28.42;;;22.65;;
22764;SDS011;11549;50.852;3.816;2022-08-19T00:56:59;30.10;;;24.40;;
22764;SDS011;11549;50.852;3.816;2022-08-19T00:59:31;34.15;;;26.20;;
22764;SDS011;11549;50.852;3.816;2022-08-19T01:02:22;36.97;;;27.60;;
22764;SDS011;11549;50.852;3.816;2022-08-19T01:04:51;38.38;;;28.77;;
22764;SDS011;11549;50.852;3.816;2022-08-19T01:07:21;35.35;;;28.48;;
22764;SDS011;11549;50.852;3.816;2022-08-19T01:09:50;36.08;;;27.95;;
22764;SDS011;11549;50.852;3.816;2022-08-19T01:12:18;37.80;;;29.08;;
22764;SDS011;11549;50.852;3.816;2022-08-19T01:14:48;38.28;;;28.67;;
22764;SDS011;11549;50.852;3.816;2022-08-19T01:17:17;35.33;;;27.02;;
22764;SDS011;11549;50.852;3.816;2022-08-19T01:19:47;37.22;;;26.55;;
22764;SDS011;11549;50.852;3.816;2022-08-19T01:22:17;37.17;;;26.98;;
22764;SDS011;11549;50.852;3.816;2022-08-19T01:24:59;38.60;;;26.85;;
22764;SDS011;11549;50.852;3.816;2022-08-19T01:27:36;36.25;;;26.80;;
22764;SDS011;11549;50.852;3.816;2022-08-19T01:30:09;35.33;;;25.80;;
22764;SDS011;11549;50.852;3.816;2022-08-19T01:32:38;33.92;;;25.35;;
22764;SDS011;11549;50.852;3.816;2022-08-19T01:35:07;31.95;;;24.67;;
22764;SDS011;11549;50.852;3.816;2022-08-19T01:37:45;39.72;;;27.77;;
22764;SDS011;11549;50.852;3.816;2022-08-19T01:40:18;34.10;;;24.17;;
22764;SDS011;11549;50.852;3.816;2022-08-19T01:42:48;34.65;;;26.17;;
22764;SDS011;11549;50.852;3.816;2022-08-19T01:45:17;35.75;;;26.77;;
22764;SDS011;11549;50.852;3.816;2022-08-19T01:47:46;34.40;;;25.13;;
22764;SDS011;11549;50.852;3.816;2022-08-19T01:50:26;34.10;;;23.83;;
22764;SDS011;11549;50.852;3.816;2022-08-19T01:52:56;33.25;;;24.67;;
22764;SDS011;11549;50.852;3.816;2022-08-19T01:55:32;32.95;;;23.95;;
22764;SDS011;11549;50.852;3.816;2022-08-19T01:58:06;31.67;;;23.67;;
22764;SDS011;11549;50.852;3.816;2022-08-19T02:00:38;31.48;;;23.05;;
22764;SDS011;11549;50.852;3.816;2022-08-19T02:03:07;31.17;;;22.45;;
22764;SDS011;11549;50.852;3.816;2022-08-19T02:05:35;32.88;;;24.33;;
22764;SDS011;11549;50.852;3.816;2022-08-19T02:08:05;32.78;;;23.92;;
22764;SDS011;11549;50.852;3.816;2022-08-19T02:10:37;32.63;;;22.55;;
22764;SDS011;11549;50.852;3.816;2022-08-19T02:13:06;28.73;;;21.60;;
22764;SDS011;11549;50.852;3.816;2022-08-19T02:15:36;36.58;;;23.52;;
22764;SDS011;11549;50.852;3.816;2022-08-19T02:18:04;34.20;;;22.83;;
22764;SDS011;11549;50.852;3.816;2022-08-19T02:20:33;31.48;;;22.15;;
22764;SDS011;11549;50.852;3.816;2022-08-19T02:23:02;32.05;;;22.23;;
22764;SDS011;11549;50.852;3.816;2022-08-19T02:25:40;32.83;;;21.42;;
22764;SDS011;11549;50.852;3.816;2022-08-19T02:28:09;35.53;;;23.70;;
22764;SDS011;11549;50.852;3.816;2022-08-19T02:30:43;38.78;;;24.52;;
22764;SDS011;11549;50.852;3.816;2022-08-19T02:33:12;30.10;;;20.95;;
22764;SDS011;11549;50.852;3.816;2022-08-19T02:35:40;32.75;;;20.75;;
22764;SDS011;11549;50.852;3.816;2022-08-19T02:38:09;28.42;;;21.02;;
22764;SDS011;11549;50.852;3.816;2022-08-19T02:40:56;30.23;;;21.77;;
22764;SDS011;11549;50.852;3.816;2022-08-19T02:43:27;28.98;;;20.70;;
22764;SDS011;11549;50.852;3.816;2022-08-19T02:45:59;27.98;;;20.20;;
22764;SDS011;11549;50.852;3.816;2022-08-19T02:48:28;29.05;;;21.45;;
22764;SDS011;11549;50.852;3.816;2022-08-19T02:50:59;33.53;;;20.55;;
22764;SDS011;11549;50.852;3.816;2022-08-19T02:53:28;29.75;;;19.80;;
22764;SDS011;11549;50.852;3.816;2022-08-19T02:55:57;32.22;;;22.20;;
22764;SDS011;11549;50.852;3.816;2022-08-19T02:58:26;32.17;;;21.58;;
22764;SDS011;11549;50.852;3.816;2022-08-19T03:00:55;34.05;;;22.10;;
22764;SDS011;11549;50.852;3.816;2022-08-19T03:03:25;28.25;;;20.48;;
22764;SDS011;11549;50.852;3.816;2022-08-19T03:06:02;31.23;;;21.25;;
22764;SDS011;11549;50.852;3.816;2022-08-19T03:08:32;30.42;;;20.40;;
22764;SDS011;11549;50.852;3.816;2022-08-19T03:11:02;31.52;;;19.65;;
22764;SDS011;11549;50.852;3.816;2022-08-19T03:13:31;29.48;;;19.83;;
22764;SDS011;11549;50.852;3.816;2022-08-19T03:15:59;30.73;;;18.52;;
22764;SDS011;11549;50.852;3.816;2022-08-19T03:18:32;27.73;;;19.17;;
22764;SDS011;11549;50.852;3.816;2022-08-19T03:21:00;23.52;;;17.70;;
22764;SDS011;11549;50.852;3.816;2022-08-19T03:23:29;27.45;;;18.85;;
22764;SDS011;11549;50.852;3.816;2022-08-19T03:25:57;25.75;;;17.83;;
22764;SDS011;11549;50.852;3.816;2022-08-19T03:28:44;27.52;;;17.80;;
22764;SDS011;11549;50.852;3.816;2022-08-19T03:31:24;25.13;;;16.77;;
22764;SDS011;11549;50.852;3.816;2022-08-19T03:34:11;24.02;;;15.73;;
22764;SDS011;11549;50.852;3.816;2022-08-19T03:36:41;26.25;;;17.65;;
22764;SDS011;11549;50.852;3.816;2022-08-19T03:39:10;26.45;;;17.85;;
22764;SDS011;11549;50.852;3.816;2022-08-19T03:41:39;21.80;;;16.70;;
22764;SDS011;11549;50.852;3.816;2022-08-19T03:44:12;23.60;;;16.55;;
22764;SDS011;11549;50.852;3.816;2022-08-19T03:46:44;24.67;;;16.77;;
22764;SDS011;11549;50.852;3.816;2022-08-19T03:49:13;24.30;;;16.40;;
22764;SDS011;11549;50.852;3.816;2022-08-19T03:51:44;21.75;;;14.98;;
22764;SDS011;11549;50.852;3.816;2022-08-19T03:54:15;26.33;;;17.10;;
22764;SDS011;11549;50.852;3.816;2022-08-19T03:56:45;24.38;;;17.08;;
22764;SDS011;11549;50.852;3.816;2022-08-19T03:59:19;25.23;;;17.27;;
22764;SDS011;11549;50.852;3.816;2022-08-19T04:01:52;23.30;;;16.52;;
22764;SDS011;11549;50.852;3.816;2022-08-19T04:04:22;24.30;;;16.40;;
22764;SDS011;11549;50.852;3.816;2022-08-19T04:06:55;23.38;;;15.23;;
22764;SDS011;11549;50.852;3.816;2022-08-19T04:09:24;23.98;;;15.85;;
22764;SDS011;11549;50.852;3.816;2022-08-19T04:11:53;23.27;;;15.68;;
22764;SDS011;11549;50.852;3.816;2022-08-19T04:14:26;20.95;;;14.93;;
22764;SDS011;11549;50.852;3.816;2022-08-19T04:16:57;20.48;;;14.65;;
22764;SDS011;11549;50.852;3.816;2022-08-19T04:19:26;24.45;;;14.98;;
22764;SDS011;11549;50.852;3.816;2022-08-19T04:21:56;26.02;;;14.63;;
22764;SDS011;11549;50.852;3.816;2022-08-19T04:24:25;19.35;;;13.57;;
22764;SDS011;11549;50.852;3.816;2022-08-19T04:26:53;23.42;;;14.45;;
22764;SDS011;11549;50.852;3.816;2022-08-19T04:29:23;19.45;;;13.30;;
22764;SDS011;11549;50.852;3.816;2022-08-19T04:31:54;20.73;;;13.35;;
22764;SDS011;11549;50.852;3.816;2022-08-19T04:34:24;20.08;;;14.10;;
22764;SDS011;11549;50.852;3.816;2022-08-19T04:36:56;24.33;;;14.73;;
22764;SDS011;11549;50.852;3.816;2022-08-19T04:39:26;23.30;;;14.73;;
22764;SDS011;11549;50.852;3.816;2022-08-19T04:42:11;20.02;;;13.32;;
22764;SDS011;11549;50.852;3.816;2022-08-19T04:44:59;21.77;;;14.02;;
22764;SDS011;11549;50.852;3.816;2022-08-19T04:47:30;19.13;;;12.77;;
22764;SDS011;11549;50.852;3.816;2022-08-19T04:50:19;20.85;;;12.60;;
22764;SDS011;11549;50.852;3.816;2022-08-19T04:52:49;21.67;;;13.88;;
22764;SDS011;11549;50.852;3.816;2022-08-19T04:55:19;23.92;;;14.18;;
22764;SDS011;11549;50.852;3.816;2022-08-19T04:57:47;20.55;;;12.43;;
22764;SDS011;11549;50.852;3.816;2022-08-19T05:00:18;19.77;;;12.75;;
22764;SDS011;11549;50.852;3.816;2022-08-19T05:02:47;18.42;;;11.90;;
22764;SDS011;11549;50.852;3.816;2022-08-19T05:05:15;20.92;;;12.05;;
22764;SDS011;11549;50.852;3.816;2022-08-19T05:07:44;20.73;;;12.20;;
22764;SDS011;11549;50.852;3.816;2022-08-19T05:10:12;18.95;;;12.20;;
22764;SDS011;11549;50.852;3.816;2022-08-19T05:12:41;17.42;;;12.07;;
22764;SDS011;11549;50.852;3.816;2022-08-19T05:15:09;17.13;;;11.02;;
22764;SDS011;11549;50.852;3.816;2022-08-19T05:17:39;20.05;;;10.68;;
22764;SDS011;11549;50.852;3.816;2022-08-19T05:20:28;19.30;;;11.02;;
22764;SDS011;11549;50.852;3.816;2022-08-19T05:23:14;16.75;;;10.27;;
22764;SDS011;11549;50.852;3.816;2022-08-19T05:25:48;16.58;;;10.93;;
22764;SDS011;11549;50.852;3.816;2022-08-19T05:28:18;20.52;;;11.32;;
22764;SDS011;11549;50.852;3.816;2022-08-19T05:30:46;18.25;;;10.48;;
22764;SDS011;11549;50.852;3.816;2022-08-19T05:33:18;18.08;;;11.07;;
22764;SDS011;11549;50.852;3.816;2022-08-19T05:35:47;19.67;;;10.68;;
22764;SDS011;11549;50.852;3.816;2022-08-19T05:38:16;15.77;;;9.85;;
22764;SDS011;11549;50.852;3.816;2022-08-19T05:40:45;16.92;;;9.82;;
22764;SDS011;11549;50.852;3.816;2022-08-19T05:43:14;17.23;;;10.38;;
22764;SDS011;11549;50.852;3.816;2022-08-19T05:45:43;16.45;;;9.95;;
22764;SDS011;11549;50.852;3.816;2022-08-19T05:48:12;16.67;;;10.85;;
22764;SDS011;11549;50.852;3.816;2022-08-19T05:50:42;17.88;;;10.18;;
22764;SDS011;11549;50.852;3.816;2022-08-19T05:53:11;19.48;;;10.55;;
22764;SDS011;11549;50.852;3.816;2022-08-19T05:55:40;20.70;;;10.50;;
22764;SDS011;11549;50.852;3.816;2022-08-19T05:58:09;19.00;;;11.25;;
22764;SDS011;11549;50.852;3.816;2022-08-19T06:00:37;15.82;;;11.60;;
22764;SDS011;11549;50.852;3.816;2022-08-19T06:03:06;17.50;;;11.43;;
22764;SDS011;11549;50.852;3.816;2022-08-19T06:05:38;21.05;;;10.75;;
22764;SDS011;11549;50.852;3.816;2022-08-19T06:08:18;19.20;;;10.23;;
22764;SDS011;11549;50.852;3.816;2022-08-19T06:11:11;17.63;;;10.63;;
22764;SDS011;11549;50.852;3.816;2022-08-19T06:13:42;17.45;;;10.25;;
22764;SDS011;11549;50.852;3.816;2022-08-19T06:16:11;15.77;;;8.95;;
22764;SDS011;11549;50.852;3.816;2022-08-19T06:18:49;17.90;;;9.27;;
22764;SDS011;11549;50.852;3.816;2022-08-19T06:21:18;13.48;;;8.38;;
22764;SDS011;11549;50.852;3.816;2022-08-19T06:23:49;17.70;;;8.75;;
22764;SDS011;11549;50.852;3.816;2022-08-19T06:26:18;16.38;;;9.32;;
22764;SDS011;11549;50.852;3.816;2022-08-19T06:28:48;14.27;;;7.78;;
22764;SDS011;11549;50.852;3.816;2022-08-19T06:31:17;16.83;;;9.10;;
22764;SDS011;11549;50.852;3.816;2022-08-19T06:33:47;12.48;;;8.02;;
22764;SDS011;11549;50.852;3.816;2022-08-19T06:36:18;14.00;;;9.05;;
22764;SDS011;11549;50.852;3.816;2022-08-19T06:38:52;14.30;;;9.00;;
22764;SDS011;11549;50.852;3.816;2022-08-19T06:41:21;16.98;;;9.18;;
22764;SDS011;11549;50.852;3.816;2022-08-19T06:43:49;15.98;;;8.18;;
22764;SDS011;11549;50.852;3.816;2022-08-19T06:46:22;14.27;;;8.35;;
22764;SDS011;11549;50.852;3.816;2022-08-19T06:48:50;10.50;;;7.30;;
22764;SDS011;11549;50.852;3.816;2022-08-19T06:51:20;13.10;;;8.07;;
22764;SDS011;11549;50.852;3.816;2022-08-19T06:53:50;12.23;;;7.63;;
22764;SDS011;11549;50.852;3.816;2022-08-19T06:56:22;12.75;;;7.05;;
22764;SDS011;11549;50.852;3.816;2022-08-19T06:58:57;11.52;;;7.20;;
22764;SDS011;11549;50.852;3.816;2022-08-19T07:01:26;17.20;;;8.90;;
22764;SDS011;11549;50.852;3.816;2022-08-19T07:03:54;15.10;;;8.38;;
22764;SDS011;11549;50.852;3.816;2022-08-19T07:06:23;15.40;;;8.65;;
22764;SDS011;11549;50.852;3.816;2022-08-19T07:09:12;17.88;;;8.82;;
22764;SDS011;11549;50.852;3.816;2022-08-19T07:11:44;14.05;;;8.55;;
22764;SDS011;11549;50.852;3.816;2022-08-19T07:14:14;13.88;;;8.98;;
22764;SDS011;11549;50.852;3.816;2022-08-19T07:16:45;13.27;;;9.25;;
22764;SDS011;11549;50.852;3.816;2022-08-19T07:19:16;14.48;;;8.50;;
22764;SDS011;11549;50.852;3.816;2022-08-19T07:21:47;15.63;;;8.75;;
22764;SDS011;11549;50.852;3.816;2022-08-19T07:24:19;13.88;;;9.30;;
22764;SDS011;11549;50.852;3.816;2022-08-19T07:26:51;12.90;;;8.07;;
22764;SDS011;11549;50.852;3.816;2022-08-19T07:29:20;15.63;;;9.65;;
22764;SDS011;11549;50.852;3.816;2022-08-19T07:34:25;14.85;;;9.93;;
22764;SDS011;11549;50.852;3.816;2022-08-19T07:36:55;15.20;;;9.55;;
22764;SDS011;11549;50.852;3.816;2022-08-19T07:39:27;14.73;;;10.35;;
22764;SDS011;11549;50.852;3.816;2022-08-19T07:41:58;13.52;;;9.15;;
22764;SDS011;11549;50.852;3.816;2022-08-19T07:44:28;17.67;;;9.88;;
22764;SDS011;11549;50.852;3.816;2022-08-19T07:46:56;13.98;;;9.90;;
22764;SDS011;11549;50.852;3.816;2022-08-19T07:49:26;14.98;;;9.60;;
22764;SDS011;11549;50.852;3.816;2022-08-19T07:51:57;16.65;;;10.02;;
22764;SDS011;11549;50.852;3.816;2022-08-19T07:54:31;16.63;;;10.80;;
22764;SDS011;11549;50.852;3.816;2022-08-19T07:57:02;14.18;;;10.25;;
22764;SDS011;11549;50.852;3.816;2022-08-19T07:59:31;18.65;;;10.32;;
22764;SDS011;11549;50.852;3.816;2022-08-19T08:02:00;15.57;;;9.75;;
22764;SDS011;11549;50.852;3.816;2022-08-19T08:04:29;13.38;;;9.57;;
22764;SDS011;11549;50.852;3.816;2022-08-19T08:07:15;17.52;;;10.32;;
22764;SDS011;11549;50.852;3.816;2022-08-19T08:10:06;14.15;;;9.20;;
22764;SDS011;11549;50.852;3.816;2022-08-19T08:12:46;16.58;;;8.73;;
22764;SDS011;11549;50.852;3.816;2022-08-19T08:15:35;14.82;;;9.13;;
22764;SDS011;11549;50.852;3.816;2022-08-19T08:18:09;17.15;;;8.70;;
22764;SDS011;11549;50.852;3.816;2022-08-19T08:20:39;13.75;;;9.20;;
22764;SDS011;11549;50.852;3.816;2022-08-19T08:23:08;14.70;;;8.43;;
22764;SDS011;11549;50.852;3.816;2022-08-19T08:25:55;15.63;;;8.70;;
22764;SDS011;11549;50.852;3.816;2022-08-19T08:28:25;13.60;;;8.07;;
22764;SDS011;11549;50.852;3.816;2022-08-19T08:30:56;13.95;;;8.70;;
22764;SDS011;11549;50.852;3.816;2022-08-19T08:33:26;13.65;;;8.68;;
22764;SDS011;11549;50.852;3.816;2022-08-19T08:36:00;12.73;;;8.13;;
22764;SDS011;11549;50.852;3.816;2022-08-19T08:38:29;11.50;;;7.97;;
22764;SDS011;11549;50.852;3.816;2022-08-19T08:41:07;12.05;;;7.70;;
22764;SDS011;11549;50.852;3.816;2022-08-19T08:43:46;14.18;;;8.50;;
22764;SDS011;11549;50.852;3.816;2022-08-19T08:46:19;13.43;;;7.85;;
22764;SDS011;11549;50.852;3.816;2022-08-19T08:48:59;12.30;;;7.65;;
22764;SDS011;11549;50.852;3.816;2022-08-19T08:51:37;12.98;;;7.72;;
22764;SDS011;11549;50.852;3.816;2022-08-19T08:54:13;11.50;;;7.82;;
22764;SDS011;11549;50.852;3.816;2022-08-19T08:56:46;14.65;;;9.00;;
22764;SDS011;11549;50.852;3.816;2022-08-19T08:59:19;10.50;;;6.93;;
22764;SDS011;11549;50.852;3.816;2022-08-19T09:01:51;12.00;;;7.20;;
22764;SDS011;11549;50.852;3.816;2022-08-19T09:04:20;10.68;;;7.32;;
22764;SDS011;11549;50.852;3.816;2022-08-19T09:06:50;11.02;;;8.35;;
22764;SDS011;11549;50.852;3.816;2022-08-19T09:09:24;10.40;;;7.40;;
22764;SDS011;11549;50.852;3.816;2022-08-19T09:12:03;12.10;;;7.85;;
22764;SDS011;11549;50.852;3.816;2022-08-19T09:14:39;12.32;;;7.93;;
22764;SDS011;11549;50.852;3.816;2022-08-19T09:17:16;14.35;;;8.60;;
22764;SDS011;11549;50.852;3.816;2022-08-19T09:19:50;17.20;;;8.88;;
22764;SDS011;11549;50.852;3.816;2022-08-19T09:22:20;11.77;;;8.10;;
22764;SDS011;11549;50.852;3.816;2022-08-19T09:24:52;11.07;;;7.70;;
22764;SDS011;11549;50.852;3.816;2022-08-19T09:27:23;14.13;;;8.07;;
22764;SDS011;11549;50.852;3.816;2022-08-19T09:30:09;14.15;;;8.20;;
22764;SDS011;11549;50.852;3.816;2022-08-19T09:32:41;11.20;;;7.93;;
22764;SDS011;11549;50.852;3.816;2022-08-19T09:35:18;13.40;;;7.00;;
22764;SDS011;11549;50.852;3.816;2022-08-19T09:37:49;11.55;;;7.53;;
22764;SDS011;11549;50.852;3.816;2022-08-19T09:40:24;12.57;;;7.30;;
22764;SDS011;11549;50.852;3.816;2022-08-19T09:42:57;10.50;;;7.05;;
22764;SDS011;11549;50.852;3.816;2022-08-19T09:45:35;11.23;;;7.10;;
22764;SDS011;11549;50.852;3.816;2022-08-19T09:48:04;10.45;;;7.28;;
22764;SDS011;11549;50.852;3.816;2022-08-19T09:50:34;10.98;;;6.40;;
22764;SDS011;11549;50.852;3.816;2022-08-19T09:53:17;11.18;;;6.55;;
22764;SDS011;11549;50.852;3.816;2022-08-19T09:55:45;11.20;;;6.80;;
22764;SDS011;11549;50.852;3.816;2022-08-19T09:58:15;9.75;;;6.80;;
22764;SDS011;11549;50.852;3.816;2022-08-19T10:00:50;11.00;;;6.50;;
22764;SDS011;11549;50.852;3.816;2022-08-19T10:03:18;8.57;;;5.65;;
22764;SDS011;11549;50.852;3.816;2022-08-19T10:05:55;8.48;;;5.68;;
22764;SDS011;11549;50.852;3.816;2022-08-19T10:08:26;9.38;;;5.50;;
22764;SDS011;11549;50.852;3.816;2022-08-19T10:10:56;8.45;;;5.05;;
22764;SDS011;11549;50.852;3.816;2022-08-19T10:13:46;6.55;;;4.22;;
22764;SDS011;11549;50.852;3.816;2022-08-19T10:16:17;9.63;;;3.70;;
22764;SDS011;11549;50.852;3.816;2022-08-19T10:18:55;6.82;;;3.50;;
22764;SDS011;11549;50.852;3.816;2022-08-19T10:21:25;6.88;;;3.67;;
22764;SDS011;11549;50.852;3.816;2022-08-19T10:23:58;6.32;;;2.63;;
22764;SDS011;11549;50.852;3.816;2022-08-19T10:26:31;5.00;;;3.20;;
22764;SDS011;11549;50.852;3.816;2022-08-19T10:29:03;4.35;;;3.22;;
22764;SDS011;11549;50.852;3.816;2022-08-19T10:34:23;5.68;;;3.60;;
22764;SDS011;11549;50.852;3.816;2022-08-19T10:36:54;5.28;;;3.55;;
22764;SDS011;11549;50.852;3.816;2022-08-19T10:39:27;5.22;;;3.45;;
22764;SDS011;11549;50.852;3.816;2022-08-19T10:42:06;6.22;;;3.75;;
22764;SDS011;11549;50.852;3.816;2022-08-19T10:44:38;9.43;;;3.83;;
22764;SDS011;11549;50.852;3.816;2022-08-19T10:47:07;6.03;;;4.00;;
22764;SDS011;11549;50.852;3.816;2022-08-19T10:49:50;6.43;;;3.35;;
22764;SDS011;11549;50.852;3.816;2022-08-19T10:52:37;7.40;;;4.30;;
22764;SDS011;11549;50.852;3.816;2022-08-19T10:55:15;5.88;;;4.78;;
22764;SDS011;11549;50.852;3.816;2022-08-19T10:58:02;5.55;;;4.18;;
22764;SDS011;11549;50.852;3.816;2022-08-19T11:00:35;6.90;;;5.55;;
22764;SDS011;11549;50.852;3.816;2022-08-19T11:03:03;6.10;;;4.10;;
22764;SDS011;11549;50.852;3.816;2022-08-19T11:05:34;5.45;;;3.60;;
22764;SDS011;11549;50.852;3.816;2022-08-19T11:08:05;5.28;;;4.35;;
22764;SDS011;11549;50.852;3.816;2022-08-19T11:10:48;5.57;;;4.10;;
22764;SDS011;11549;50.852;3.816;2022-08-19T11:13:20;8.45;;;4.90;;
22764;SDS011;11549;50.852;3.816;2022-08-19T11:15:57;7.55;;;4.85;;
22764;SDS011;11549;50.852;3.816;2022-08-19T11:18:32;5.82;;;4.78;;
22764;SDS011;11549;50.852;3.816;2022-08-19T11:21:05;7.05;;;4.70;;
22764;SDS011;11549;50.852;3.816;2022-08-19T11:23:35;6.80;;;5.45;;
22764;SDS011;11549;50.852;3.816;2022-08-19T11:26:04;7.43;;;5.50;;
22764;SDS011;11549;50.852;3.816;2022-08-19T11:28:32;7.38;;;5.65;;
22764;SDS011;11549;50.852;3.816;2022-08-19T11:31:02;9.07;;;5.68;;
22764;SDS011;11549;50.852;3.816;2022-08-19T11:33:31;7.35;;;5.93;;
22764;SDS011;11549;50.852;3.816;2022-08-19T11:36:00;8.82;;;7.03;;
22764;SDS011;11549;50.852;3.816;2022-08-19T11:38:28;10.15;;;7.35;;
22764;SDS011;11549;50.852;3.816;2022-08-19T11:40:57;7.50;;;5.82;;
22764;SDS011;11549;50.852;3.816;2022-08-19T11:43:27;7.30;;;5.20;;
22764;SDS011;11549;50.852;3.816;2022-08-19T11:46:05;8.82;;;5.50;;
22764;SDS011;11549;50.852;3.816;2022-08-19T11:48:34;7.78;;;5.57;;
22764;SDS011;11549;50.852;3.816;2022-08-19T11:51:03;7.32;;;5.32;;
22764;SDS011;11549;50.852;3.816;2022-08-19T11:53:33;9.30;;;5.38;;
22764;SDS011;11549;50.852;3.816;2022-08-19T11:56:02;5.60;;;4.80;;
22764;SDS011;11549;50.852;3.816;2022-08-19T11:58:31;6.90;;;4.25;;
22764;SDS011;11549;50.852;3.816;2022-08-19T12:01:00;5.90;;;4.57;;
22764;SDS011;11549;50.852;3.816;2022-08-19T12:03:30;6.22;;;4.55;;
22764;SDS011;11549;50.852;3.816;2022-08-19T12:05:58;5.90;;;4.20;;
22764;SDS011;11549;50.852;3.816;2022-08-19T12:08:30;7.00;;;4.80;;
22764;SDS011;11549;50.852;3.816;2022-08-19T12:10:58;7.97;;;4.60;;
22764;SDS011;11549;50.852;3.816;2022-08-19T12:13:28;6.40;;;5.05;;
22764;SDS011;11549;50.852;3.816;2022-08-19T12:15:57;8.68;;;4.57;;
22764;SDS011;11549;50.852;3.816;2022-08-19T12:18:25;7.03;;;5.43;;
22764;SDS011;11549;50.852;3.816;2022-08-19T12:20:55;7.80;;;5.13;;
22764;SDS011;11549;50.852;3.816;2022-08-19T12:23:23;6.13;;;5.47;;
22764;SDS011;11549;50.852;3.816;2022-08-19T12:25:52;7.10;;;5.75;;
22764;SDS011;11549;50.852;3.816;2022-08-19T12:28:22;5.65;;;4.75;;
22764;SDS011;11549;50.852;3.816;2022-08-19T12:30:51;6.97;;;5.13;;
22764;SDS011;11549;50.852;3.816;2022-08-19T12:33:19;5.88;;;4.80;;
22764;SDS011;11549;50.852;3.816;2022-08-19T12:35:51;5.53;;;4.28;;
22764;SDS011;11549;50.852;3.816;2022-08-19T12:38:21;6.32;;;4.60;;
22764;SDS011;11549;50.852;3.816;2022-08-19T12:40:50;7.45;;;5.03;;
22764;SDS011;11549;50.852;3.816;2022-08-19T12:43:24;5.63;;;4.10;;
22764;SDS011;11549;50.852;3.816;2022-08-19T12:45:53;6.45;;;4.32;;
22764;SDS011;11549;50.852;3.816;2022-08-19T12:48:22;5.28;;;4.22;;
22764;SDS011;11549;50.852;3.816;2022-08-19T12:51:00;6.80;;;4.45;;
22764;SDS011;11549;50.852;3.816;2022-08-19T12:56:04;6.80;;;4.13;;
22764;SDS011;11549;50.852;3.816;2022-08-19T12:58:38;6.60;;;4.53;;
22764;SDS011;11549;50.852;3.816;2022-08-19T13:01:17;6.53;;;4.82;;
22764;SDS011;11549;50.852;3.816;2022-08-19T13:03:48;9.10;;;4.63;;
22764;SDS011;11549;50.852;3.816;2022-08-19T13:06:18;7.07;;;4.53;;
22764;SDS011;11549;50.852;3.816;2022-08-19T13:08:48;5.68;;;4.60;;
22764;SDS011;11549;50.852;3.816;2022-08-19T13:11:17;7.60;;;5.07;;
22764;SDS011;11549;50.852;3.816;2022-08-19T13:13:51;5.47;;;4.47;;
22764;SDS011;11549;50.852;3.816;2022-08-19T13:16:21;5.75;;;4.38;;
22764;SDS011;11549;50.852;3.816;2022-08-19T13:18:49;5.70;;;4.50;;
22764;SDS011;11549;50.852;3.816;2022-08-19T13:21:19;6.60;;;4.88;;
22764;SDS011;11549;50.852;3.816;2022-08-19T13:23:50;7.63;;;4.30;;
22764;SDS011;11549;50.852;3.816;2022-08-19T13:26:19;7.03;;;5.00;;
22764;SDS011;11549;50.852;3.816;2022-08-19T13:28:51;6.88;;;5.15;;
22764;SDS011;11549;50.852;3.816;2022-08-19T13:31:39;7.15;;;4.85;;
22764;SDS011;11549;50.852;3.816;2022-08-19T13:34:27;7.85;;;4.20;;
22764;SDS011;11549;50.852;3.816;2022-08-19T13:36:58;9.15;;;4.50;;
22764;SDS011;11549;50.852;3.816;2022-08-19T13:39:30;6.30;;;4.22;;
22764;SDS011;11549;50.852;3.816;2022-08-19T13:42:00;4.97;;;3.78;;
22764;SDS011;11549;50.852;3.816;2022-08-19T13:44:30;4.97;;;3.58;;
22764;SDS011;11549;50.852;3.816;2022-08-19T13:46:59;7.55;;;3.63;;
22764;SDS011;11549;50.852;3.816;2022-08-19T13:49:33;4.93;;;3.40;;
22764;SDS011;11549;50.852;3.816;2022-08-19T13:52:03;5.97;;;3.90;;
22764;SDS011;11549;50.852;3.816;2022-08-19T13:54:33;6.28;;;3.58;;
22764;SDS011;11549;50.852;3.816;2022-08-19T13:57:02;4.38;;;3.10;;
22764;SDS011;11549;50.852;3.816;2022-08-19T13:59:30;4.25;;;3.10;;
22764;SDS011;11549;50.852;3.816;2022-08-19T14:01:59;4.80;;;3.25;;
22764;SDS011;11549;50.852;3.816;2022-08-19T14:04:28;3.75;;;2.50;;
22764;SDS011;11549;50.852;3.816;2022-08-19T14:06:56;4.10;;;2.45;;
22764;SDS011;11549;50.852;3.816;2022-08-19T14:09:27;4.50;;;2.80;;
22764;SDS011;11549;50.852;3.816;2022-08-19T14:11:57;4.70;;;2.78;;
22764;SDS011;11549;50.852;3.816;2022-08-19T14:14:26;4.10;;;3.05;;
22764;SDS011;11549;50.852;3.816;2022-08-19T14:16:55;5.97;;;3.13;;
22764;SDS011;11549;50.852;3.816;2022-08-19T14:19:23;5.15;;;3.10;;
22764;SDS011;11549;50.852;3.816;2022-08-19T14:21:55;4.82;;;3.25;;
22764;SDS011;11549;50.852;3.816;2022-08-19T14:24:24;10.90;;;3.17;;
22764;SDS011;11549;50.852;3.816;2022-08-19T14:26:53;7.05;;;3.55;;
22764;SDS011;11549;50.852;3.816;2022-08-19T14:29:22;7.93;;;3.70;;
22764;SDS011;11549;50.852;3.816;2022-08-19T14:31:51;7.55;;;3.45;;
22764;SDS011;11549;50.852;3.816;2022-08-19T14:34:19;9.15;;;3.30;;
22764;SDS011;11549;50.852;3.816;2022-08-19T14:36:48;6.72;;;3.08;;
22764;SDS011;11549;50.852;3.816;2022-08-19T14:39:16;5.18;;;3.20;;
22764;SDS011;11549;50.852;3.816;2022-08-19T14:41:45;7.85;;;3.30;;
22764;SDS011;11549;50.852;3.816;2022-08-19T14:44:13;7.82;;;3.25;;
22764;SDS011;11549;50.852;3.816;2022-08-19T14:46:43;13.65;;;4.43;;
22764;SDS011;11549;50.852;3.816;2022-08-19T14:49:14;12.30;;;4.18;;
22764;SDS011;11549;50.852;3.816;2022-08-19T14:51:44;5.53;;;3.70;;
22764;SDS011;11549;50.852;3.816;2022-08-19T14:54:13;6.30;;;3.60;;
22764;SDS011;11549;50.852;3.816;2022-08-19T14:56:41;5.28;;;3.20;;
22764;SDS011;11549;50.852;3.816;2022-08-19T14:59:10;7.00;;;2.95;;
22764;SDS011;11549;50.852;3.816;2022-08-19T15:01:38;6.68;;;2.85;;
22764;SDS011;11549;50.852;3.816;2022-08-19T15:04:08;8.77;;;3.67;;
22764;SDS011;11549;50.852;3.816;2022-08-19T15:06:36;4.55;;;2.90;;
22764;SDS011;11549;50.852;3.816;2022-08-19T15:09:05;6.13;;;3.00;;